Pagrindinis puslapis
METAR-TAF:

METAR-TAF

Oro uostai :

Kajanis, Suomija

platuma: 64-17N, ilguma: 027-41E, Aukštis: 143 m

Dabartinis oras

Ataskaita buvo paskelbta 27 minutes, ne 20:50 UTC
Vėjas 5 kt iš Pietryčių
Temperatūra 9°C
Drėgmė 61%
Slėgis 1012 hPa
Matomumas 10 km arba daugiau
nėra debesų žemiau 1500 m ir nėra kamuolinių lietaus debesų

METAR: EFKI 222050Z AUTO 14005KT CAVOK 09/02 Q1012

Laikas: 00:17 (21:17 UTC)

Prognozė

Ataskaita buvo paskelbta 49 minutes, ne 20:28 UTC
Prognozė galioja nuo 22 metu 21 UTC su 23 metu 06 UTC
Vėjas 5 kt iš Rytų
Matomumas 10 km arba daugiau
nėra debesų žemiau 1500 m ir nėra kamuolinių lietaus debesų

TAF: EFKI 222028Z 2221/2306 10005KT CAVOK

Orai ataskaitas ir orų prognozės (METAR, TAF).

turimą stotys yra geltonos ir raudonos taškus žemėlapyje.

Perkelti pele per norėdami pamatyti stoties vardą.

Tada spustelėkite, norėdami matyti oro stebėjimo ir prognozės.

Norėdami pakeisti žemėlapį: spustelėkite ant žalios mygtukų su juodo kryžiaus žemyn,; žalią mygtuką su brūkšneliu, jei norite nutolinti; arba žalių rodyklių gretimoms žemėlapius.


METAR-TAF: